sensor_id;sensor_type;location;lat;lon;timestamp;temperature;humidity
22526;DHT22;11429;50.842;4.386;2023-11-21T00:00:00;9.90;99.90
22526;DHT22;11429;50.842;4.386;2023-11-21T00:02:26;10.00;99.90
22526;DHT22;11429;50.842;4.386;2023-11-21T00:04:55;10.10;99.90
22526;DHT22;11429;50.842;4.386;2023-11-21T00:07:21;10.10;99.90
22526;DHT22;11429;50.842;4.386;2023-11-21T00:09:47;10.10;99.90
22526;DHT22;11429;50.842;4.386;2023-11-21T00:12:12;10.10;99.90
22526;DHT22;11429;50.842;4.386;2023-11-21T00:14:40;10.20;99.90
22526;DHT22;11429;50.842;4.386;2023-11-21T00:17:06;10.20;99.90
22526;DHT22;11429;50.842;4.386;2023-11-21T00:19:32;10.30;99.90
22526;DHT22;11429;50.842;4.386;2023-11-21T00:21:58;10.20;99.90
22526;DHT22;11429;50.842;4.386;2023-11-21T00:24:25;10.30;99.90
22526;DHT22;11429;50.842;4.386;2023-11-21T00:26:51;10.50;99.90
22526;DHT22;11429;50.842;4.386;2023-11-21T00:29:17;10.40;99.90
22526;DHT22;11429;50.842;4.386;2023-11-21T00:31:44;10.30;99.90
22526;DHT22;11429;50.842;4.386;2023-11-21T00:34:11;10.10;99.90
22526;DHT22;11429;50.842;4.386;2023-11-21T00:36:37;10.00;99.90
22526;DHT22;11429;50.842;4.386;2023-11-21T00:39:03;9.80;99.90
22526;DHT22;11429;50.842;4.386;2023-11-21T00:41:29;9.70;99.90
22526;DHT22;11429;50.842;4.386;2023-11-21T00:43:55;9.60;99.90
22526;DHT22;11429;50.842;4.386;2023-11-21T00:46:21;9.70;99.90
22526;DHT22;11429;50.842;4.386;2023-11-21T00:48:47;9.60;99.90
22526;DHT22;11429;50.842;4.386;2023-11-21T00:51:12;9.50;99.90
22526;DHT22;11429;50.842;4.386;2023-11-21T00:53:38;9.60;99.90
22526;DHT22;11429;50.842;4.386;2023-11-21T00:56:05;9.60;99.90
22526;DHT22;11429;50.842;4.386;2023-11-21T00:58:30;9.60;99.90
22526;DHT22;11429;50.842;4.386;2023-11-21T01:00:56;9.70;99.90
22526;DHT22;11429;50.842;4.386;2023-11-21T01:03:23;9.70;99.90
22526;DHT22;11429;50.842;4.386;2023-11-21T01:05:48;10.10;99.90
22526;DHT22;11429;50.842;4.386;2023-11-21T01:08:15;10.10;99.90
22526;DHT22;11429;50.842;4.386;2023-11-21T01:10:41;10.00;99.90
22526;DHT22;11429;50.842;4.386;2023-11-21T01:13:07;9.90;99.90
22526;DHT22;11429;50.842;4.386;2023-11-21T01:15:33;9.90;99.90
22526;DHT22;11429;50.842;4.386;2023-11-21T01:17:59;10.00;99.90
22526;DHT22;11429;50.842;4.386;2023-11-21T01:20:25;10.10;99.90
22526;DHT22;11429;50.842;4.386;2023-11-21T01:22:51;10.00;99.90
22526;DHT22;11429;50.842;4.386;2023-11-21T01:25:19;9.90;99.90
22526;DHT22;11429;50.842;4.386;2023-11-21T01:27:46;10.00;99.90
22526;DHT22;11429;50.842;4.386;2023-11-21T01:30:12;10.00;99.90
22526;DHT22;11429;50.842;4.386;2023-11-21T01:32:38;9.90;99.90
22526;DHT22;11429;50.842;4.386;2023-11-21T01:35:05;9.90;99.90
22526;DHT22;11429;50.842;4.386;2023-11-21T01:37:32;9.80;99.90
22526;DHT22;11429;50.842;4.386;2023-11-21T01:39:59;9.90;99.90
22526;DHT22;11429;50.842;4.386;2023-11-21T01:42:24;9.70;99.90
22526;DHT22;11429;50.842;4.386;2023-11-21T01:44:50;9.60;99.90
22526;DHT22;11429;50.842;4.386;2023-11-21T01:47:16;9.90;99.90
22526;DHT22;11429;50.842;4.386;2023-11-21T01:49:45;10.10;99.90
22526;DHT22;11429;50.842;4.386;2023-11-21T01:52:12;10.50;99.90
22526;DHT22;11429;50.842;4.386;2023-11-21T01:54:38;10.50;99.90
22526;DHT22;11429;50.842;4.386;2023-11-21T01:57:05;10.50;99.90
22526;DHT22;11429;50.842;4.386;2023-11-21T01:59:36;10.50;99.90
22526;DHT22;11429;50.842;4.386;2023-11-21T02:02:06;10.40;99.90
22526;DHT22;11429;50.842;4.386;2023-11-21T02:04:35;10.10;99.90
22526;DHT22;11429;50.842;4.386;2023-11-21T02:07:04;10.10;99.90
22526;DHT22;11429;50.842;4.386;2023-11-21T02:09:33;10.30;99.90
22526;DHT22;11429;50.842;4.386;2023-11-21T02:12:00;10.30;99.90
22526;DHT22;11429;50.842;4.386;2023-11-21T02:14:26;10.40;99.90
22526;DHT22;11429;50.842;4.386;2023-11-21T02:16:54;10.20;99.90
22526;DHT22;11429;50.842;4.386;2023-11-21T02:19:21;10.30;99.90
22526;DHT22;11429;50.842;4.386;2023-11-21T02:21:56;10.10;99.90
22526;DHT22;11429;50.842;4.386;2023-11-21T02:24:26;10.00;99.90
22526;DHT22;11429;50.842;4.386;2023-11-21T02:26:52;9.80;99.90
22526;DHT22;11429;50.842;4.386;2023-11-21T02:29:19;9.90;99.90
22526;DHT22;11429;50.842;4.386;2023-11-21T02:31:49;10.20;99.90
22526;DHT22;11429;50.842;4.386;2023-11-21T02:34:17;10.20;99.90
22526;DHT22;11429;50.842;4.386;2023-11-21T02:36:44;10.50;99.90
22526;DHT22;11429;50.842;4.386;2023-11-21T02:39:10;10.30;99.90
22526;DHT22;11429;50.842;4.386;2023-11-21T02:41:39;10.20;99.90
22526;DHT22;11429;50.842;4.386;2023-11-21T02:44:06;10.30;99.90
22526;DHT22;11429;50.842;4.386;2023-11-21T02:46:33;10.30;99.90
22526;DHT22;11429;50.842;4.386;2023-11-21T02:49:00;10.30;99.90
22526;DHT22;11429;50.842;4.386;2023-11-21T02:51:26;10.40;99.90
22526;DHT22;11429;50.842;4.386;2023-11-21T02:53:52;10.30;99.90
22526;DHT22;11429;50.842;4.386;2023-11-21T02:56:17;10.20;99.90
22526;DHT22;11429;50.842;4.386;2023-11-21T02:58:43;10.00;99.90
22526;DHT22;11429;50.842;4.386;2023-11-21T03:01:09;10.30;99.90
22526;DHT22;11429;50.842;4.386;2023-11-21T03:03:39;10.40;99.90
22526;DHT22;11429;50.842;4.386;2023-11-21T03:06:08;10.40;99.90
22526;DHT22;11429;50.842;4.386;2023-11-21T03:08:34;10.30;99.90
22526;DHT22;11429;50.842;4.386;2023-11-21T03:11:00;10.40;99.90
22526;DHT22;11429;50.842;4.386;2023-11-21T03:13:25;10.40;99.90
22526;DHT22;11429;50.842;4.386;2023-11-21T03:15:51;10.40;99.90
22526;DHT22;11429;50.842;4.386;2023-11-21T03:18:17;10.40;99.90
22526;DHT22;11429;50.842;4.386;2023-11-21T03:20:46;10.30;99.90
22526;DHT22;11429;50.842;4.386;2023-11-21T03:23:12;10.50;99.90
22526;DHT22;11429;50.842;4.386;2023-11-21T03:25:37;10.60;99.90
22526;DHT22;11429;50.842;4.386;2023-11-21T03:28:03;10.60;99.90
22526;DHT22;11429;50.842;4.386;2023-11-21T03:30:29;10.50;99.90
22526;DHT22;11429;50.842;4.386;2023-11-21T03:32:54;10.50;99.90
22526;DHT22;11429;50.842;4.386;2023-11-21T03:35:20;10.50;99.90
22526;DHT22;11429;50.842;4.386;2023-11-21T03:37:46;10.50;99.90
22526;DHT22;11429;50.842;4.386;2023-11-21T03:40:13;10.60;99.90
22526;DHT22;11429;50.842;4.386;2023-11-21T03:42:39;10.50;99.90
22526;DHT22;11429;50.842;4.386;2023-11-21T03:45:06;10.30;99.90
22526;DHT22;11429;50.842;4.386;2023-11-21T03:47:32;10.40;99.90
22526;DHT22;11429;50.842;4.386;2023-11-21T03:49:58;10.60;99.90
22526;DHT22;11429;50.842;4.386;2023-11-21T03:52:24;10.60;99.90
22526;DHT22;11429;50.842;4.386;2023-11-21T03:54:50;10.50;99.90
22526;DHT22;11429;50.842;4.386;2023-11-21T03:57:16;10.50;99.90
22526;DHT22;11429;50.842;4.386;2023-11-21T03:59:42;10.50;99.90
22526;DHT22;11429;50.842;4.386;2023-11-21T04:02:09;10.70;99.90
22526;DHT22;11429;50.842;4.386;2023-11-21T04:04:35;10.40;99.90
22526;DHT22;11429;50.842;4.386;2023-11-21T04:07:01;10.00;99.90
22526;DHT22;11429;50.842;4.386;2023-11-21T04:09:27;10.00;99.90
22526;DHT22;11429;50.842;4.386;2023-11-21T04:11:53;10.10;99.90
22526;DHT22;11429;50.842;4.386;2023-11-21T04:14:19;10.00;99.90
22526;DHT22;11429;50.842;4.386;2023-11-21T04:16:45;9.90;99.90
22526;DHT22;11429;50.842;4.386;2023-11-21T04:19:10;9.90;99.90
22526;DHT22;11429;50.842;4.386;2023-11-21T04:21:37;10.10;99.90
22526;DHT22;11429;50.842;4.386;2023-11-21T04:24:03;10.50;99.90
22526;DHT22;11429;50.842;4.386;2023-11-21T04:26:29;10.30;99.90
22526;DHT22;11429;50.842;4.386;2023-11-21T04:28:55;10.00;99.90
22526;DHT22;11429;50.842;4.386;2023-11-21T04:31:21;9.90;99.90
22526;DHT22;11429;50.842;4.386;2023-11-21T04:33:46;9.90;99.90
22526;DHT22;11429;50.842;4.386;2023-11-21T04:36:12;9.90;99.90
22526;DHT22;11429;50.842;4.386;2023-11-21T04:38:37;9.90;99.90
22526;DHT22;11429;50.842;4.386;2023-11-21T04:41:03;9.90;99.90
22526;DHT22;11429;50.842;4.386;2023-11-21T04:43:29;10.10;99.90
22526;DHT22;11429;50.842;4.386;2023-11-21T04:45:55;10.20;99.90
22526;DHT22;11429;50.842;4.386;2023-11-21T04:48:20;10.20;99.90
22526;DHT22;11429;50.842;4.386;2023-11-21T04:50:46;10.40;99.90
22526;DHT22;11429;50.842;4.386;2023-11-21T04:53:12;10.50;99.90
22526;DHT22;11429;50.842;4.386;2023-11-21T04:55:40;10.20;99.90
22526;DHT22;11429;50.842;4.386;2023-11-21T04:58:06;10.00;99.90
22526;DHT22;11429;50.842;4.386;2023-11-21T05:00:31;9.90;99.90
22526;DHT22;11429;50.842;4.386;2023-11-21T05:02:57;9.80;99.90
22526;DHT22;11429;50.842;4.386;2023-11-21T05:05:23;9.70;99.90
22526;DHT22;11429;50.842;4.386;2023-11-21T05:07:49;9.90;99.90
22526;DHT22;11429;50.842;4.386;2023-11-21T05:10:15;9.90;99.90
22526;DHT22;11429;50.842;4.386;2023-11-21T05:12:41;9.90;99.90
22526;DHT22;11429;50.842;4.386;2023-11-21T05:15:08;10.00;99.90
22526;DHT22;11429;50.842;4.386;2023-11-21T05:17:38;10.00;99.90
22526;DHT22;11429;50.842;4.386;2023-11-21T05:20:08;9.90;99.90
22526;DHT22;11429;50.842;4.386;2023-11-21T05:22:35;9.80;99.90
22526;DHT22;11429;50.842;4.386;2023-11-21T05:25:02;9.70;99.90
22526;DHT22;11429;50.842;4.386;2023-11-21T05:27:29;9.90;99.90
22526;DHT22;11429;50.842;4.386;2023-11-21T05:29:56;10.10;99.90
22526;DHT22;11429;50.842;4.386;2023-11-21T05:32:26;10.10;99.90
22526;DHT22;11429;50.842;4.386;2023-11-21T05:34:52;10.00;99.90
22526;DHT22;11429;50.842;4.386;2023-11-21T05:37:18;9.90;99.90
22526;DHT22;11429;50.842;4.386;2023-11-21T05:39:44;9.90;99.90
22526;DHT22;11429;50.842;4.386;2023-11-21T05:42:09;10.10;99.90
22526;DHT22;11429;50.842;4.386;2023-11-21T05:44:41;10.30;99.90
22526;DHT22;11429;50.842;4.386;2023-11-21T05:47:07;10.10;99.90
22526;DHT22;11429;50.842;4.386;2023-11-21T05:49:33;10.00;99.90
22526;DHT22;11429;50.842;4.386;2023-11-21T05:51:59;9.90;99.90
22526;DHT22;11429;50.842;4.386;2023-11-21T05:54:25;10.00;99.90
22526;DHT22;11429;50.842;4.386;2023-11-21T05:56:51;10.00;99.90
22526;DHT22;11429;50.842;4.386;2023-11-21T05:59:17;10.00;99.90
22526;DHT22;11429;50.842;4.386;2023-11-21T06:01:43;10.00;99.90
22526;DHT22;11429;50.842;4.386;2023-11-21T06:04:08;9.90;99.90
22526;DHT22;11429;50.842;4.386;2023-11-21T06:06:35;9.90;99.90
22526;DHT22;11429;50.842;4.386;2023-11-21T06:09:01;9.80;99.90
22526;DHT22;11429;50.842;4.386;2023-11-21T06:11:27;9.90;99.90
22526;DHT22;11429;50.842;4.386;2023-11-21T06:13:52;9.80;99.90
22526;DHT22;11429;50.842;4.386;2023-11-21T06:16:21;9.90;99.90
22526;DHT22;11429;50.842;4.386;2023-11-21T06:18:46;9.90;99.90
22526;DHT22;11429;50.842;4.386;2023-11-21T06:21:12;10.00;99.90
22526;DHT22;11429;50.842;4.386;2023-11-21T06:23:39;10.00;99.90
22526;DHT22;11429;50.842;4.386;2023-11-21T06:26:05;9.90;99.90
22526;DHT22;11429;50.842;4.386;2023-11-21T06:28:31;9.90;99.90
22526;DHT22;11429;50.842;4.386;2023-11-21T06:30:58;9.90;99.90
22526;DHT22;11429;50.842;4.386;2023-11-21T06:33:24;9.90;99.90
22526;DHT22;11429;50.842;4.386;2023-11-21T06:35:52;10.00;99.90
22526;DHT22;11429;50.842;4.386;2023-11-21T06:38:18;10.10;99.90
22526;DHT22;11429;50.842;4.386;2023-11-21T06:40:45;10.00;99.90
22526;DHT22;11429;50.842;4.386;2023-11-21T06:43:11;9.90;99.90
22526;DHT22;11429;50.842;4.386;2023-11-21T06:45:36;9.90;99.90
22526;DHT22;11429;50.842;4.386;2023-11-21T06:48:02;9.80;99.90
22526;DHT22;11429;50.842;4.386;2023-11-21T06:50:28;9.80;99.90
22526;DHT22;11429;50.842;4.386;2023-11-21T06:52:53;9.80;99.90
22526;DHT22;11429;50.842;4.386;2023-11-21T06:55:19;9.70;99.90
22526;DHT22;11429;50.842;4.386;2023-11-21T06:57:45;9.70;99.90
22526;DHT22;11429;50.842;4.386;2023-11-21T07:00:12;9.80;99.90
22526;DHT22;11429;50.842;4.386;2023-11-21T07:02:38;10.00;99.90
22526;DHT22;11429;50.842;4.386;2023-11-21T07:05:05;10.10;99.90
22526;DHT22;11429;50.842;4.386;2023-11-21T07:07:31;10.10;99.90
22526;DHT22;11429;50.842;4.386;2023-11-21T07:09:57;10.20;99.90
22526;DHT22;11429;50.842;4.386;2023-11-21T07:12:22;10.30;99.90
22526;DHT22;11429;50.842;4.386;2023-11-21T07:14:51;10.40;99.90
22526;DHT22;11429;50.842;4.386;2023-11-21T07:17:16;10.40;99.90
22526;DHT22;11429;50.842;4.386;2023-11-21T07:19:42;10.50;99.90
22526;DHT22;11429;50.842;4.386;2023-11-21T07:22:08;10.40;99.90
22526;DHT22;11429;50.842;4.386;2023-11-21T07:24:34;10.30;99.90
22526;DHT22;11429;50.842;4.386;2023-11-21T07:27:00;10.30;99.90
22526;DHT22;11429;50.842;4.386;2023-11-21T07:29:26;10.50;99.90
22526;DHT22;11429;50.842;4.386;2023-11-21T07:31:52;10.60;99.90
22526;DHT22;11429;50.842;4.386;2023-11-21T07:34:20;10.80;99.90
22526;DHT22;11429;50.842;4.386;2023-11-21T07:36:46;10.70;99.90
22526;DHT22;11429;50.842;4.386;2023-11-21T07:39:12;10.50;99.90
22526;DHT22;11429;50.842;4.386;2023-11-21T07:41:38;10.50;99.90
22526;DHT22;11429;50.842;4.386;2023-11-21T07:44:10;10.50;99.90
22526;DHT22;11429;50.842;4.386;2023-11-21T07:46:36;10.40;99.90
22526;DHT22;11429;50.842;4.386;2023-11-21T07:49:01;10.40;99.90
22526;DHT22;11429;50.842;4.386;2023-11-21T07:51:27;10.50;99.90
22526;DHT22;11429;50.842;4.386;2023-11-21T07:53:54;10.60;99.90
22526;DHT22;11429;50.842;4.386;2023-11-21T07:56:19;10.70;99.90
22526;DHT22;11429;50.842;4.386;2023-11-21T07:58:45;10.70;99.90
22526;DHT22;11429;50.842;4.386;2023-11-21T08:01:11;10.50;99.90
22526;DHT22;11429;50.842;4.386;2023-11-21T08:03:37;10.40;99.90
22526;DHT22;11429;50.842;4.386;2023-11-21T08:06:03;10.40;99.90
22526;DHT22;11429;50.842;4.386;2023-11-21T08:08:29;10.50;99.90
22526;DHT22;11429;50.842;4.386;2023-11-21T08:10:55;10.60;99.90
22526;DHT22;11429;50.842;4.386;2023-11-21T08:13:25;10.70;99.90
22526;DHT22;11429;50.842;4.386;2023-11-21T08:15:53;10.80;99.90
22526;DHT22;11429;50.842;4.386;2023-11-21T08:18:19;10.90;99.90
22526;DHT22;11429;50.842;4.386;2023-11-21T08:20:45;10.80;99.90
22526;DHT22;11429;50.842;4.386;2023-11-21T08:23:16;10.60;99.90
22526;DHT22;11429;50.842;4.386;2023-11-21T08:25:45;10.70;99.90
22526;DHT22;11429;50.842;4.386;2023-11-21T08:28:11;10.70;99.90
22526;DHT22;11429;50.842;4.386;2023-11-21T08:30:37;10.80;99.90
22526;DHT22;11429;50.842;4.386;2023-11-21T08:33:03;11.00;99.90
22526;DHT22;11429;50.842;4.386;2023-11-21T08:35:29;10.80;99.90
22526;DHT22;11429;50.842;4.386;2023-11-21T08:37:55;10.90;99.90
22526;DHT22;11429;50.842;4.386;2023-11-21T08:40:21;10.90;99.90
22526;DHT22;11429;50.842;4.386;2023-11-21T08:42:47;10.80;99.90
22526;DHT22;11429;50.842;4.386;2023-11-21T08:45:17;10.80;99.90
22526;DHT22;11429;50.842;4.386;2023-11-21T08:47:43;10.90;99.90
22526;DHT22;11429;50.842;4.386;2023-11-21T08:50:12;11.00;99.90
22526;DHT22;11429;50.842;4.386;2023-11-21T08:52:41;11.00;99.90
22526;DHT22;11429;50.842;4.386;2023-11-21T08:55:10;11.00;99.90
22526;DHT22;11429;50.842;4.386;2023-11-21T08:57:38;10.90;99.90
22526;DHT22;11429;50.842;4.386;2023-11-21T09:00:06;11.00;99.90
22526;DHT22;11429;50.842;4.386;2023-11-21T09:02:50;11.00;99.90
22526;DHT22;11429;50.842;4.386;2023-11-21T09:05:16;11.20;99.90
22526;DHT22;11429;50.842;4.386;2023-11-21T09:07:43;11.10;99.90
22526;DHT22;11429;50.842;4.386;2023-11-21T09:10:09;10.90;99.90
22526;DHT22;11429;50.842;4.386;2023-11-21T09:12:35;10.90;99.90
22526;DHT22;11429;50.842;4.386;2023-11-21T09:15:04;11.00;99.90
22526;DHT22;11429;50.842;4.386;2023-11-21T09:17:31;11.10;99.90
22526;DHT22;11429;50.842;4.386;2023-11-21T09:19:57;11.00;99.90
22526;DHT22;11429;50.842;4.386;2023-11-21T09:22:22;11.20;99.90
22526;DHT22;11429;50.842;4.386;2023-11-21T09:24:50;11.20;99.90
22526;DHT22;11429;50.842;4.386;2023-11-21T09:27:16;11.20;99.90
22526;DHT22;11429;50.842;4.386;2023-11-21T09:29:43;11.10;99.90
22526;DHT22;11429;50.842;4.386;2023-11-21T09:32:08;11.10;99.90
22526;DHT22;11429;50.842;4.386;2023-11-21T09:34:38;11.10;99.90
22526;DHT22;11429;50.842;4.386;2023-11-21T09:37:04;11.00;99.90
22526;DHT22;11429;50.842;4.386;2023-11-21T09:39:35;11.20;99.90
22526;DHT22;11429;50.842;4.386;2023-11-21T09:42:10;11.20;99.90
22526;DHT22;11429;50.842;4.386;2023-11-21T09:44:51;11.10;99.90
22526;DHT22;11429;50.842;4.386;2023-11-21T09:47:21;11.20;99.90
22526;DHT22;11429;50.842;4.386;2023-11-21T09:49:48;11.30;99.90
22526;DHT22;11429;50.842;4.386;2023-11-21T09:52:28;11.40;99.90
22526;DHT22;11429;50.842;4.386;2023-11-21T09:54:55;11.40;99.90
22526;DHT22;11429;50.842;4.386;2023-11-21T09:57:24;11.30;99.90
22526;DHT22;11429;50.842;4.386;2023-11-21T09:59:54;11.50;99.90
22526;DHT22;11429;50.842;4.386;2023-11-21T10:02:27;11.60;99.90
22526;DHT22;11429;50.842;4.386;2023-11-21T10:04:55;11.50;99.90
22526;DHT22;11429;50.842;4.386;2023-11-21T10:07:23;11.60;99.90
22526;DHT22;11429;50.842;4.386;2023-11-21T10:09:51;11.40;99.90
22526;DHT22;11429;50.842;4.386;2023-11-21T10:12:18;11.40;99.90
22526;DHT22;11429;50.842;4.386;2023-11-21T10:14:48;11.40;99.90
22526;DHT22;11429;50.842;4.386;2023-11-21T10:17:15;11.40;99.90
22526;DHT22;11429;50.842;4.386;2023-11-21T10:19:46;11.20;99.90
22526;DHT22;11429;50.842;4.386;2023-11-21T10:22:16;11.20;99.90
22526;DHT22;11429;50.842;4.386;2023-11-21T10:24:42;11.40;99.90
22526;DHT22;11429;50.842;4.386;2023-11-21T10:27:09;11.40;99.90
22526;DHT22;11429;50.842;4.386;2023-11-21T10:29:34;11.20;99.90
22526;DHT22;11429;50.842;4.386;2023-11-21T10:32:02;11.20;99.90
22526;DHT22;11429;50.842;4.386;2023-11-21T10:34:28;11.30;99.90
22526;DHT22;11429;50.842;4.386;2023-11-21T10:36:55;11.30;99.90
22526;DHT22;11429;50.842;4.386;2023-11-21T10:39:23;11.70;99.90
22526;DHT22;11429;50.842;4.386;2023-11-21T10:41:54;11.80;99.90
22526;DHT22;11429;50.842;4.386;2023-11-21T10:44:20;11.80;99.90
22526;DHT22;11429;50.842;4.386;2023-11-21T10:46:54;11.60;99.90
22526;DHT22;11429;50.842;4.386;2023-11-21T10:49:25;11.70;99.90
22526;DHT22;11429;50.842;4.386;2023-11-21T10:51:55;11.50;99.90
22526;DHT22;11429;50.842;4.386;2023-11-21T10:54:22;11.60;99.90
22526;DHT22;11429;50.842;4.386;2023-11-21T10:56:50;11.70;99.90
22526;DHT22;11429;50.842;4.386;2023-11-21T10:59:17;11.90;99.90
22526;DHT22;11429;50.842;4.386;2023-11-21T11:01:45;11.80;99.90
22526;DHT22;11429;50.842;4.386;2023-11-21T11:04:12;11.90;99.90
22526;DHT22;11429;50.842;4.386;2023-11-21T11:06:43;11.90;99.90
22526;DHT22;11429;50.842;4.386;2023-11-21T11:09:13;11.70;99.90
22526;DHT22;11429;50.842;4.386;2023-11-21T11:11:42;12.10;99.90
22526;DHT22;11429;50.842;4.386;2023-11-21T11:14:11;12.50;99.90
22526;DHT22;11429;50.842;4.386;2023-11-21T11:16:38;12.30;99.90
22526;DHT22;11429;50.842;4.386;2023-11-21T11:19:10;12.10;99.90
22526;DHT22;11429;50.842;4.386;2023-11-21T11:27:58;11.90;99.90
22526;DHT22;11429;50.842;4.386;2023-11-21T11:38:47;11.90;99.90
22526;DHT22;11429;50.842;4.386;2023-11-21T11:41:25;12.10;99.90
22526;DHT22;11429;50.842;4.386;2023-11-21T11:43:51;12.20;99.90
22526;DHT22;11429;50.842;4.386;2023-11-21T11:46:16;12.30;99.90
22526;DHT22;11429;50.842;4.386;2023-11-21T11:48:42;12.20;99.90
22526;DHT22;11429;50.842;4.386;2023-11-21T11:51:13;12.10;99.90
22526;DHT22;11429;50.842;4.386;2023-11-21T11:53:49;12.10;99.90
22526;DHT22;11429;50.842;4.386;2023-11-21T11:56:29;12.00;99.90
22526;DHT22;11429;50.842;4.386;2023-11-21T11:58:58;11.80;99.90
22526;DHT22;11429;50.842;4.386;2023-11-21T12:01:26;11.80;99.90
22526;DHT22;11429;50.842;4.386;2023-11-21T12:06:45;11.70;99.90
22526;DHT22;11429;50.842;4.386;2023-11-21T12:09:21;11.80;99.90
22526;DHT22;11429;50.842;4.386;2023-11-21T12:11:48;11.70;99.90
22526;DHT22;11429;50.842;4.386;2023-11-21T12:14:14;11.70;99.90
22526;DHT22;11429;50.842;4.386;2023-11-21T12:16:41;11.70;99.90
22526;DHT22;11429;50.842;4.386;2023-11-21T12:19:12;11.60;99.90
22526;DHT22;11429;50.842;4.386;2023-11-21T12:21:37;11.60;99.90
22526;DHT22;11429;50.842;4.386;2023-11-21T12:24:04;11.60;99.90
22526;DHT22;11429;50.842;4.386;2023-11-21T12:26:36;11.70;99.90
22526;DHT22;11429;50.842;4.386;2023-11-21T12:29:02;11.70;99.90
22526;DHT22;11429;50.842;4.386;2023-11-21T12:31:30;11.80;99.90
22526;DHT22;11429;50.842;4.386;2023-11-21T12:33:56;11.80;99.90
22526;DHT22;11429;50.842;4.386;2023-11-21T12:36:23;11.90;99.90
22526;DHT22;11429;50.842;4.386;2023-11-21T12:38:49;11.70;99.90
22526;DHT22;11429;50.842;4.386;2023-11-21T12:41:16;11.70;99.90
22526;DHT22;11429;50.842;4.386;2023-11-21T12:43:42;11.60;99.90
22526;DHT22;11429;50.842;4.386;2023-11-21T12:46:10;11.70;99.90
22526;DHT22;11429;50.842;4.386;2023-11-21T12:48:40;11.90;99.90
22526;DHT22;11429;50.842;4.386;2023-11-21T12:51:10;12.10;99.90
22526;DHT22;11429;50.842;4.386;2023-11-21T12:53:38;12.30;99.90
22526;DHT22;11429;50.842;4.386;2023-11-21T12:56:22;12.10;99.90
22526;DHT22;11429;50.842;4.386;2023-11-21T12:58:54;11.90;99.90
22526;DHT22;11429;50.842;4.386;2023-11-21T13:01:25;11.90;99.90
22526;DHT22;11429;50.842;4.386;2023-11-21T13:03:53;11.80;99.90
22526;DHT22;11429;50.842;4.386;2023-11-21T13:06:19;11.80;99.90
22526;DHT22;11429;50.842;4.386;2023-11-21T13:08:47;11.80;99.90
22526;DHT22;11429;50.842;4.386;2023-11-21T13:11:13;11.90;99.90
22526;DHT22;11429;50.842;4.386;2023-11-21T13:13:41;11.80;99.90
22526;DHT22;11429;50.842;4.386;2023-11-21T13:16:09;11.60;99.90
22526;DHT22;11429;50.842;4.386;2023-11-21T13:18:35;11.80;99.90
22526;DHT22;11429;50.842;4.386;2023-11-21T13:21:03;11.90;99.90
22526;DHT22;11429;50.842;4.386;2023-11-21T13:23:39;11.70;99.90
22526;DHT22;11429;50.842;4.386;2023-11-21T13:26:07;11.80;99.90
22526;DHT22;11429;50.842;4.386;2023-11-21T13:28:34;11.80;99.90
22526;DHT22;11429;50.842;4.386;2023-11-21T13:31:01;12.00;99.90
22526;DHT22;11429;50.842;4.386;2023-11-21T13:33:37;12.30;99.90
22526;DHT22;11429;50.842;4.386;2023-11-21T13:36:07;12.40;99.90
22526;DHT22;11429;50.842;4.386;2023-11-21T13:38:35;12.30;99.90
22526;DHT22;11429;50.842;4.386;2023-11-21T13:41:02;12.20;99.90
22526;DHT22;11429;50.842;4.386;2023-11-21T13:43:28;11.90;99.90
22526;DHT22;11429;50.842;4.386;2023-11-21T13:45:54;12.00;99.90
22526;DHT22;11429;50.842;4.386;2023-11-21T13:48:38;12.00;99.90
22526;DHT22;11429;50.842;4.386;2023-11-21T13:51:09;12.10;99.90
22526;DHT22;11429;50.842;4.386;2023-11-21T13:53:47;11.90;99.90
22526;DHT22;11429;50.842;4.386;2023-11-21T13:56:16;11.80;99.90
22526;DHT22;11429;50.842;4.386;2023-11-21T13:58:49;11.90;99.90
22526;DHT22;11429;50.842;4.386;2023-11-21T14:01:21;12.00;99.90
22526;DHT22;11429;50.842;4.386;2023-11-21T14:03:56;12.30;99.90
22526;DHT22;11429;50.842;4.386;2023-11-21T14:06:28;12.40;99.90
22526;DHT22;11429;50.842;4.386;2023-11-21T14:09:00;12.30;99.90
22526;DHT22;11429;50.842;4.386;2023-11-21T14:11:32;12.40;99.90
22526;DHT22;11429;50.842;4.386;2023-11-21T14:13:59;12.40;99.90
22526;DHT22;11429;50.842;4.386;2023-11-21T14:16:25;12.50;99.90
22526;DHT22;11429;50.842;4.386;2023-11-21T14:18:51;12.60;99.90
22526;DHT22;11429;50.842;4.386;2023-11-21T14:21:39;12.50;99.90
22526;DHT22;11429;50.842;4.386;2023-11-21T14:24:08;12.60;99.90
22526;DHT22;11429;50.842;4.386;2023-11-21T14:26:35;12.70;99.90
22526;DHT22;11429;50.842;4.386;2023-11-21T14:29:00;12.60;99.90
22526;DHT22;11429;50.842;4.386;2023-11-21T14:31:26;12.50;99.90
22526;DHT22;11429;50.842;4.386;2023-11-21T14:33:54;12.40;99.90
22526;DHT22;11429;50.842;4.386;2023-11-21T14:36:20;12.50;99.90
22526;DHT22;11429;50.842;4.386;2023-11-21T14:38:46;12.10;99.90
22526;DHT22;11429;50.842;4.386;2023-11-21T14:41:11;11.90;99.90
22526;DHT22;11429;50.842;4.386;2023-11-21T14:43:39;11.60;99.90
22526;DHT22;11429;50.842;4.386;2023-11-21T14:46:05;11.60;99.90
22526;DHT22;11429;50.842;4.386;2023-11-21T14:48:35;11.70;99.90
22526;DHT22;11429;50.842;4.386;2023-11-21T14:51:11;11.70;99.90
22526;DHT22;11429;50.842;4.386;2023-11-21T14:53:56;11.80;99.90
22526;DHT22;11429;50.842;4.386;2023-11-21T14:56:28;11.80;99.90
22526;DHT22;11429;50.842;4.386;2023-11-21T14:59:00;11.50;99.90
22526;DHT22;11429;50.842;4.386;2023-11-21T15:01:34;11.70;99.90
22526;DHT22;11429;50.842;4.386;2023-11-21T15:04:32;11.70;99.90
22526;DHT22;11429;50.842;4.386;2023-11-21T15:07:05;11.90;99.90
22526;DHT22;11429;50.842;4.386;2023-11-21T15:09:32;11.90;99.90
22526;DHT22;11429;50.842;4.386;2023-11-21T15:12:01;11.90;99.90
22526;DHT22;11429;50.842;4.386;2023-11-21T15:14:44;11.90;99.90
22526;DHT22;11429;50.842;4.386;2023-11-21T15:17:12;11.90;99.90
22526;DHT22;11429;50.842;4.386;2023-11-21T15:19:43;12.00;99.90
22526;DHT22;11429;50.842;4.386;2023-11-21T15:22:09;12.00;99.90
22526;DHT22;11429;50.842;4.386;2023-11-21T15:24:38;11.70;99.90
22526;DHT22;11429;50.842;4.386;2023-11-21T15:27:05;11.90;99.90
22526;DHT22;11429;50.842;4.386;2023-11-21T15:29:32;11.90;99.90
22526;DHT22;11429;50.842;4.386;2023-11-21T15:31:59;12.10;99.90
22526;DHT22;11429;50.842;4.386;2023-11-21T15:34:26;11.90;99.90
22526;DHT22;11429;50.842;4.386;2023-11-21T15:36:53;11.90;99.90
22526;DHT22;11429;50.842;4.386;2023-11-21T15:39:20;11.80;99.90
22526;DHT22;11429;50.842;4.386;2023-11-21T15:41:56;11.90;99.90
22526;DHT22;11429;50.842;4.386;2023-11-21T15:44:23;11.90;99.90
22526;DHT22;11429;50.842;4.386;2023-11-21T15:46:50;11.80;99.90
22526;DHT22;11429;50.842;4.386;2023-11-21T15:49:17;11.90;99.90
22526;DHT22;11429;50.842;4.386;2023-11-21T15:51:47;11.70;99.90